sensor_id;sensor_type;location;lat;lon;timestamp;temperature;humidity
4739;DHT22;2383;48.632;10.156;2023-12-20T00:01:34;4.00;99.90
4739;DHT22;2383;48.632;10.156;2023-12-20T00:05:36;4.00;99.90
4739;DHT22;2383;48.632;10.156;2023-12-20T00:09:39;3.50;99.90
4739;DHT22;2383;48.632;10.156;2023-12-20T00:13:43;3.60;99.90
4739;DHT22;2383;48.632;10.156;2023-12-20T00:17:48;3.80;99.90
4739;DHT22;2383;48.632;10.156;2023-12-20T00:21:50;4.00;99.90
4739;DHT22;2383;48.632;10.156;2023-12-20T00:25:52;3.90;99.90
4739;DHT22;2383;48.632;10.156;2023-12-20T00:29:54;4.00;99.90
4739;DHT22;2383;48.632;10.156;2023-12-20T00:33:56;3.90;99.90
4739;DHT22;2383;48.632;10.156;2023-12-20T00:37:59;4.20;99.90
4739;DHT22;2383;48.632;10.156;2023-12-20T00:42:01;4.20;99.90
4739;DHT22;2383;48.632;10.156;2023-12-20T00:46:03;4.20;99.90
4739;DHT22;2383;48.632;10.156;2023-12-20T00:50:05;3.70;99.90
4739;DHT22;2383;48.632;10.156;2023-12-20T00:54:08;3.80;99.90
4739;DHT22;2383;48.632;10.156;2023-12-20T00:58:11;3.90;99.90
4739;DHT22;2383;48.632;10.156;2023-12-20T01:02:12;3.40;99.90
4739;DHT22;2383;48.632;10.156;2023-12-20T01:06:14;3.10;99.90
4739;DHT22;2383;48.632;10.156;2023-12-20T01:10:17;3.00;99.90
4739;DHT22;2383;48.632;10.156;2023-12-20T01:14:19;3.30;99.90
4739;DHT22;2383;48.632;10.156;2023-12-20T01:18:21;3.40;99.90
4739;DHT22;2383;48.632;10.156;2023-12-20T01:22:23;3.20;99.90
4739;DHT22;2383;48.632;10.156;2023-12-20T01:26:25;3.30;99.90
4739;DHT22;2383;48.632;10.156;2023-12-20T01:30:27;3.50;99.90
4739;DHT22;2383;48.632;10.156;2023-12-20T01:34:30;3.50;99.90
4739;DHT22;2383;48.632;10.156;2023-12-20T01:38:32;3.20;99.90
4739;DHT22;2383;48.632;10.156;2023-12-20T01:42:34;3.30;99.90
4739;DHT22;2383;48.632;10.156;2023-12-20T01:46:35;3.60;99.90
4739;DHT22;2383;48.632;10.156;2023-12-20T01:50:38;3.60;99.90
4739;DHT22;2383;48.632;10.156;2023-12-20T01:54:41;3.70;99.90
4739;DHT22;2383;48.632;10.156;2023-12-20T01:58:44;3.80;99.90
4739;DHT22;2383;48.632;10.156;2023-12-20T02:02:47;3.80;99.90
4739;DHT22;2383;48.632;10.156;2023-12-20T02:06:52;3.80;99.90
4739;DHT22;2383;48.632;10.156;2023-12-20T02:10:55;4.00;99.90
4739;DHT22;2383;48.632;10.156;2023-12-20T02:14:58;3.80;99.90
4739;DHT22;2383;48.632;10.156;2023-12-20T02:19:00;3.90;99.90
4739;DHT22;2383;48.632;10.156;2023-12-20T02:23:02;3.90;99.90
4739;DHT22;2383;48.632;10.156;2023-12-20T02:27:06;4.20;99.90
4739;DHT22;2383;48.632;10.156;2023-12-20T02:31:08;4.30;99.90
4739;DHT22;2383;48.632;10.156;2023-12-20T02:35:10;4.20;99.90
4739;DHT22;2383;48.632;10.156;2023-12-20T02:39:12;4.30;99.90
4739;DHT22;2383;48.632;10.156;2023-12-20T02:43:14;4.40;99.90
4739;DHT22;2383;48.632;10.156;2023-12-20T02:47:17;3.80;99.90
4739;DHT22;2383;48.632;10.156;2023-12-20T02:51:19;3.90;99.90
4739;DHT22;2383;48.632;10.156;2023-12-20T02:55:21;3.90;99.90
4739;DHT22;2383;48.632;10.156;2023-12-20T02:59:23;4.20;99.90
4739;DHT22;2383;48.632;10.156;2023-12-20T03:03:25;4.30;99.90
4739;DHT22;2383;48.632;10.156;2023-12-20T03:07:27;4.40;99.90
4739;DHT22;2383;48.632;10.156;2023-12-20T03:11:29;4.40;99.90
4739;DHT22;2383;48.632;10.156;2023-12-20T03:15:31;3.90;99.90
4739;DHT22;2383;48.632;10.156;2023-12-20T03:19:33;3.10;99.90
4739;DHT22;2383;48.632;10.156;2023-12-20T03:23:35;2.90;99.90
4739;DHT22;2383;48.632;10.156;2023-12-20T03:27:37;2.90;99.90
4739;DHT22;2383;48.632;10.156;2023-12-20T03:31:40;3.40;99.90
4739;DHT22;2383;48.632;10.156;2023-12-20T03:35:43;3.40;99.90
4739;DHT22;2383;48.632;10.156;2023-12-20T03:39:44;3.60;99.90
4739;DHT22;2383;48.632;10.156;2023-12-20T03:43:46;3.90;99.90
4739;DHT22;2383;48.632;10.156;2023-12-20T03:47:48;4.00;99.90
4739;DHT22;2383;48.632;10.156;2023-12-20T03:51:51;4.50;99.90
4739;DHT22;2383;48.632;10.156;2023-12-20T03:55:54;4.70;99.90
4739;DHT22;2383;48.632;10.156;2023-12-20T03:59:55;4.50;99.90
4739;DHT22;2383;48.632;10.156;2023-12-20T04:03:57;4.50;99.90
4739;DHT22;2383;48.632;10.156;2023-12-20T04:08:03;4.40;99.90
4739;DHT22;2383;48.632;10.156;2023-12-20T04:12:06;4.60;99.90
4739;DHT22;2383;48.632;10.156;2023-12-20T04:16:08;4.70;99.90
4739;DHT22;2383;48.632;10.156;2023-12-20T04:20:10;4.80;99.90
4739;DHT22;2383;48.632;10.156;2023-12-20T04:24:12;4.60;99.90
4739;DHT22;2383;48.632;10.156;2023-12-20T04:28:14;4.90;99.90
4739;DHT22;2383;48.632;10.156;2023-12-20T04:32:16;4.10;99.90
4739;DHT22;2383;48.632;10.156;2023-12-20T04:36:18;3.50;99.90
4739;DHT22;2383;48.632;10.156;2023-12-20T04:40:20;3.30;99.90
4739;DHT22;2383;48.632;10.156;2023-12-20T04:44:22;3.80;99.90
4739;DHT22;2383;48.632;10.156;2023-12-20T04:48:24;3.40;99.90
4739;DHT22;2383;48.632;10.156;2023-12-20T04:52:26;3.30;99.90
4739;DHT22;2383;48.632;10.156;2023-12-20T04:56:28;3.10;99.90
4739;DHT22;2383;48.632;10.156;2023-12-20T05:00:30;3.30;99.90
4739;DHT22;2383;48.632;10.156;2023-12-20T05:04:33;3.50;99.90
4739;DHT22;2383;48.632;10.156;2023-12-20T05:08:35;3.70;99.90
4739;DHT22;2383;48.632;10.156;2023-12-20T05:12:37;3.60;99.90
4739;DHT22;2383;48.632;10.156;2023-12-20T05:16:39;3.60;99.90
4739;DHT22;2383;48.632;10.156;2023-12-20T05:20:41;3.70;99.90
4739;DHT22;2383;48.632;10.156;2023-12-20T05:24:43;4.00;99.90
4739;DHT22;2383;48.632;10.156;2023-12-20T05:28:45;4.00;99.90
4739;DHT22;2383;48.632;10.156;2023-12-20T05:32:47;3.70;99.90
4739;DHT22;2383;48.632;10.156;2023-12-20T05:36:49;3.70;99.90
4739;DHT22;2383;48.632;10.156;2023-12-20T05:40:52;3.70;99.90
4739;DHT22;2383;48.632;10.156;2023-12-20T05:44:54;3.70;99.90
4739;DHT22;2383;48.632;10.156;2023-12-20T05:48:59;4.30;99.90
4739;DHT22;2383;48.632;10.156;2023-12-20T05:53:01;4.10;99.90
4739;DHT22;2383;48.632;10.156;2023-12-20T05:57:03;4.20;99.90
4739;DHT22;2383;48.632;10.156;2023-12-20T06:01:05;4.10;99.90
4739;DHT22;2383;48.632;10.156;2023-12-20T06:05:08;4.30;99.90
4739;DHT22;2383;48.632;10.156;2023-12-20T06:09:10;4.80;99.90
4739;DHT22;2383;48.632;10.156;2023-12-20T06:13:12;4.50;99.90
4739;DHT22;2383;48.632;10.156;2023-12-20T06:17:15;4.60;99.90
4739;DHT22;2383;48.632;10.156;2023-12-20T06:21:17;4.70;99.90
4739;DHT22;2383;48.632;10.156;2023-12-20T06:25:19;4.80;99.90
4739;DHT22;2383;48.632;10.156;2023-12-20T06:29:21;4.50;99.90
4739;DHT22;2383;48.632;10.156;2023-12-20T06:33:23;4.30;99.90
4739;DHT22;2383;48.632;10.156;2023-12-20T06:37:25;4.40;99.90
4739;DHT22;2383;48.632;10.156;2023-12-20T06:41:28;4.40;99.90
4739;DHT22;2383;48.632;10.156;2023-12-20T06:45:30;4.20;99.90
4739;DHT22;2383;48.632;10.156;2023-12-20T06:49:32;4.40;99.90
4739;DHT22;2383;48.632;10.156;2023-12-20T06:53:34;4.20;99.90
4739;DHT22;2383;48.632;10.156;2023-12-20T06:57:36;4.10;99.90
4739;DHT22;2383;48.632;10.156;2023-12-20T07:01:38;4.30;99.90
4739;DHT22;2383;48.632;10.156;2023-12-20T07:05:41;4.50;99.90
4739;DHT22;2383;48.632;10.156;2023-12-20T07:09:45;4.50;99.90
4739;DHT22;2383;48.632;10.156;2023-12-20T07:13:47;4.80;99.90
4739;DHT22;2383;48.632;10.156;2023-12-20T07:17:49;4.50;99.90
4739;DHT22;2383;48.632;10.156;2023-12-20T07:21:51;4.70;99.90
4739;DHT22;2383;48.632;10.156;2023-12-20T07:25:53;4.70;99.90
4739;DHT22;2383;48.632;10.156;2023-12-20T07:29:55;4.60;99.90
4739;DHT22;2383;48.632;10.156;2023-12-20T07:33:57;4.90;99.90
4739;DHT22;2383;48.632;10.156;2023-12-20T07:38:00;4.60;99.90
4739;DHT22;2383;48.632;10.156;2023-12-20T07:42:02;4.10;99.90
4739;DHT22;2383;48.632;10.156;2023-12-20T07:46:05;4.20;99.90
4739;DHT22;2383;48.632;10.156;2023-12-20T07:50:09;4.30;99.90
4739;DHT22;2383;48.632;10.156;2023-12-20T07:54:12;4.40;99.90
4739;DHT22;2383;48.632;10.156;2023-12-20T07:58:14;4.50;99.90
4739;DHT22;2383;48.632;10.156;2023-12-20T08:02:16;3.90;99.90
4739;DHT22;2383;48.632;10.156;2023-12-20T08:06:18;4.20;99.90
4739;DHT22;2383;48.632;10.156;2023-12-20T08:10:21;4.40;99.90
4739;DHT22;2383;48.632;10.156;2023-12-20T08:14:23;4.50;99.90
4739;DHT22;2383;48.632;10.156;2023-12-20T08:18:25;3.90;99.90
4739;DHT22;2383;48.632;10.156;2023-12-20T08:22:27;4.40;99.90
4739;DHT22;2383;48.632;10.156;2023-12-20T08:26:29;3.90;99.90
4739;DHT22;2383;48.632;10.156;2023-12-20T08:30:31;3.70;99.90
4739;DHT22;2383;48.632;10.156;2023-12-20T08:34:34;3.40;99.90
4739;DHT22;2383;48.632;10.156;2023-12-20T08:38:36;4.10;99.90
4739;DHT22;2383;48.632;10.156;2023-12-20T08:42:38;3.90;99.90
4739;DHT22;2383;48.632;10.156;2023-12-20T08:46:40;4.30;99.90
4739;DHT22;2383;48.632;10.156;2023-12-20T08:50:42;4.60;99.90
4739;DHT22;2383;48.632;10.156;2023-12-20T08:54:45;4.40;99.90
4739;DHT22;2383;48.632;10.156;2023-12-20T08:58:47;4.30;99.90
4739;DHT22;2383;48.632;10.156;2023-12-20T09:02:49;4.40;99.90
4739;DHT22;2383;48.632;10.156;2023-12-20T09:06:51;4.00;99.90
4739;DHT22;2383;48.632;10.156;2023-12-20T09:10:53;3.40;99.90
4739;DHT22;2383;48.632;10.156;2023-12-20T09:14:56;2.40;99.90
4739;DHT22;2383;48.632;10.156;2023-12-20T09:18:57;1.80;99.90
4739;DHT22;2383;48.632;10.156;2023-12-20T09:23:00;2.20;99.90
4739;DHT22;2383;48.632;10.156;2023-12-20T09:27:02;2.50;99.90
4739;DHT22;2383;48.632;10.156;2023-12-20T09:31:04;2.30;99.90
4739;DHT22;2383;48.632;10.156;2023-12-20T09:35:08;2.20;99.90
4739;DHT22;2383;48.632;10.156;2023-12-20T09:39:10;1.40;99.90
4739;DHT22;2383;48.632;10.156;2023-12-20T09:43:14;2.10;99.90
4739;DHT22;2383;48.632;10.156;2023-12-20T09:47:20;2.70;99.90
4739;DHT22;2383;48.632;10.156;2023-12-20T09:51:26;3.20;99.90
4739;DHT22;2383;48.632;10.156;2023-12-20T09:55:30;2.80;99.90
4739;DHT22;2383;48.632;10.156;2023-12-20T09:59:34;2.60;99.90
4739;DHT22;2383;48.632;10.156;2023-12-20T10:03:38;2.10;99.90
4739;DHT22;2383;48.632;10.156;2023-12-20T10:07:42;2.00;99.90
4739;DHT22;2383;48.632;10.156;2023-12-20T10:11:44;2.20;99.90
4739;DHT22;2383;48.632;10.156;2023-12-20T10:15:46;1.50;99.90
4739;DHT22;2383;48.632;10.156;2023-12-20T10:19:48;1.70;99.90
4739;DHT22;2383;48.632;10.156;2023-12-20T10:23:50;1.70;99.90
4739;DHT22;2383;48.632;10.156;2023-12-20T10:32:26;0.90;99.90
4739;DHT22;2383;48.632;10.156;2023-12-20T10:36:30;1.30;99.90
4739;DHT22;2383;48.632;10.156;2023-12-20T10:40:36;0.90;99.90
4739;DHT22;2383;48.632;10.156;2023-12-20T10:44:40;1.10;99.90
4739;DHT22;2383;48.632;10.156;2023-12-20T10:48:43;1.20;99.90
4739;DHT22;2383;48.632;10.156;2023-12-20T10:52:47;1.80;99.90
4739;DHT22;2383;48.632;10.156;2023-12-20T10:56:52;2.00;99.90
4739;DHT22;2383;48.632;10.156;2023-12-20T11:01:01;1.90;99.90
4739;DHT22;2383;48.632;10.156;2023-12-20T11:09:41;2.20;99.90
4739;DHT22;2383;48.632;10.156;2023-12-20T11:18:04;1.60;99.90
4739;DHT22;2383;48.632;10.156;2023-12-20T11:22:06;1.80;99.90
4739;DHT22;2383;48.632;10.156;2023-12-20T11:26:09;2.20;99.90
4739;DHT22;2383;48.632;10.156;2023-12-20T11:30:11;2.60;99.90
4739;DHT22;2383;48.632;10.156;2023-12-20T11:34:17;2.50;99.90
4739;DHT22;2383;48.632;10.156;2023-12-20T11:38:22;1.80;99.90
4739;DHT22;2383;48.632;10.156;2023-12-20T11:42:24;2.10;99.90
4739;DHT22;2383;48.632;10.156;2023-12-20T11:46:26;2.80;99.90
4739;DHT22;2383;48.632;10.156;2023-12-20T11:50:29;2.80;99.90
4739;DHT22;2383;48.632;10.156;2023-12-20T11:54:32;2.40;99.90
4739;DHT22;2383;48.632;10.156;2023-12-20T11:58:34;2.50;99.90
4739;DHT22;2383;48.632;10.156;2023-12-20T12:02:37;3.00;99.90
4739;DHT22;2383;48.632;10.156;2023-12-20T12:06:39;3.20;99.90
4739;DHT22;2383;48.632;10.156;2023-12-20T12:10:41;3.30;99.90
4739;DHT22;2383;48.632;10.156;2023-12-20T12:14:44;3.80;99.90
4739;DHT22;2383;48.632;10.156;2023-12-20T12:18:58;3.40;99.90
4739;DHT22;2383;48.632;10.156;2023-12-20T12:23:04;3.30;99.90
4739;DHT22;2383;48.632;10.156;2023-12-20T12:27:07;3.20;99.90
4739;DHT22;2383;48.632;10.156;2023-12-20T12:31:13;2.30;99.90
4739;DHT22;2383;48.632;10.156;2023-12-20T12:35:17;2.10;99.90
4739;DHT22;2383;48.632;10.156;2023-12-20T12:39:19;3.00;99.90
4739;DHT22;2383;48.632;10.156;2023-12-20T12:43:21;2.60;99.90
4739;DHT22;2383;48.632;10.156;2023-12-20T12:47:25;1.60;99.90
4739;DHT22;2383;48.632;10.156;2023-12-20T12:51:27;2.40;99.90
4739;DHT22;2383;48.632;10.156;2023-12-20T12:55:29;2.10;99.90
4739;DHT22;2383;48.632;10.156;2023-12-20T12:59:31;2.30;99.90
4739;DHT22;2383;48.632;10.156;2023-12-20T13:03:33;2.40;99.90
4739;DHT22;2383;48.632;10.156;2023-12-20T13:07:36;2.30;99.90
4739;DHT22;2383;48.632;10.156;2023-12-20T13:11:39;1.40;99.90
4739;DHT22;2383;48.632;10.156;2023-12-20T13:15:41;1.40;99.90
4739;DHT22;2383;48.632;10.156;2023-12-20T13:19:43;1.50;99.90
4739;DHT22;2383;48.632;10.156;2023-12-20T13:23:45;1.60;99.90
4739;DHT22;2383;48.632;10.156;2023-12-20T13:27:47;1.80;99.90
4739;DHT22;2383;48.632;10.156;2023-12-20T13:31:50;2.00;99.90
4739;DHT22;2383;48.632;10.156;2023-12-20T13:35:52;2.00;99.90
4739;DHT22;2383;48.632;10.156;2023-12-20T13:39:54;2.40;99.90
4739;DHT22;2383;48.632;10.156;2023-12-20T13:43:56;2.30;99.90
4739;DHT22;2383;48.632;10.156;2023-12-20T13:47:58;1.30;99.90
4739;DHT22;2383;48.632;10.156;2023-12-20T13:52:01;1.60;99.90
4739;DHT22;2383;48.632;10.156;2023-12-20T13:56:03;1.70;99.90
4739;DHT22;2383;48.632;10.156;2023-12-20T14:00:05;2.60;99.90
4739;DHT22;2383;48.632;10.156;2023-12-20T14:04:07;2.80;99.90
4739;DHT22;2383;48.632;10.156;2023-12-20T14:08:09;2.80;99.90
4739;DHT22;2383;48.632;10.156;2023-12-20T14:12:15;3.00;99.90
4739;DHT22;2383;48.632;10.156;2023-12-20T14:16:17;2.90;99.90
4739;DHT22;2383;48.632;10.156;2023-12-20T14:20:19;3.50;99.90
4739;DHT22;2383;48.632;10.156;2023-12-20T14:24:21;4.20;99.30
4739;DHT22;2383;48.632;10.156;2023-12-20T14:28:23;3.20;99.00
4739;DHT22;2383;48.632;10.156;2023-12-20T14:32:25;2.90;99.90
4739;DHT22;2383;48.632;10.156;2023-12-20T14:36:29;2.80;99.90
4739;DHT22;2383;48.632;10.156;2023-12-20T14:40:32;2.60;99.90
4739;DHT22;2383;48.632;10.156;2023-12-20T14:44:35;3.00;99.90
4739;DHT22;2383;48.632;10.156;2023-12-20T14:48:37;3.10;99.30
4739;DHT22;2383;48.632;10.156;2023-12-20T14:52:39;3.70;99.90
4739;DHT22;2383;48.632;10.156;2023-12-20T14:56:41;3.50;99.80
4739;DHT22;2383;48.632;10.156;2023-12-20T15:00:43;2.90;99.90
4739;DHT22;2383;48.632;10.156;2023-12-20T15:04:46;3.20;99.60
4739;DHT22;2383;48.632;10.156;2023-12-20T15:08:48;2.80;99.90
4739;DHT22;2383;48.632;10.156;2023-12-20T15:12:50;3.30;99.90
4739;DHT22;2383;48.632;10.156;2023-12-20T15:16:53;3.20;99.50
4739;DHT22;2383;48.632;10.156;2023-12-20T15:20:56;3.10;99.70
4739;DHT22;2383;48.632;10.156;2023-12-20T15:24:58;3.10;99.90
4739;DHT22;2383;48.632;10.156;2023-12-20T15:29:00;2.90;99.90
4739;DHT22;2383;48.632;10.156;2023-12-20T15:33:03;2.80;99.90
4739;DHT22;2383;48.632;10.156;2023-12-20T15:37:08;3.00;99.90
4739;DHT22;2383;48.632;10.156;2023-12-20T15:41:21;2.80;99.90
4739;DHT22;2383;48.632;10.156;2023-12-20T15:45:23;3.30;99.90
4739;DHT22;2383;48.632;10.156;2023-12-20T15:49:25;3.30;99.80
4739;DHT22;2383;48.632;10.156;2023-12-20T15:53:27;2.90;99.90
4739;DHT22;2383;48.632;10.156;2023-12-20T15:57:29;3.50;99.80
4739;DHT22;2383;48.632;10.156;2023-12-20T16:01:49;3.70;99.50
4739;DHT22;2383;48.632;10.156;2023-12-20T16:05:55;3.60;99.50
4739;DHT22;2383;48.632;10.156;2023-12-20T16:09:57;3.60;99.30
4739;DHT22;2383;48.632;10.156;2023-12-20T16:13:59;3.90;99.90
4739;DHT22;2383;48.632;10.156;2023-12-20T16:18:01;4.20;99.40
4739;DHT22;2383;48.632;10.156;2023-12-20T16:22:03;4.20;98.70
4739;DHT22;2383;48.632;10.156;2023-12-20T16:26:07;4.30;98.80
4739;DHT22;2383;48.632;10.156;2023-12-20T16:30:10;3.90;99.40
4739;DHT22;2383;48.632;10.156;2023-12-20T16:34:12;4.10;99.10
4739;DHT22;2383;48.632;10.156;2023-12-20T16:38:14;4.20;99.30
4739;DHT22;2383;48.632;10.156;2023-12-20T16:42:16;3.40;99.50
4739;DHT22;2383;48.632;10.156;2023-12-20T16:46:18;3.60;99.90
4739;DHT22;2383;48.632;10.156;2023-12-20T16:50:20;3.70;99.90
4739;DHT22;2383;48.632;10.156;2023-12-20T16:54:23;4.20;99.20
4739;DHT22;2383;48.632;10.156;2023-12-20T16:58:25;4.00;99.10
4739;DHT22;2383;48.632;10.156;2023-12-20T17:02:27;3.40;99.90
4739;DHT22;2383;48.632;10.156;2023-12-20T17:06:28;2.90;99.90
4739;DHT22;2383;48.632;10.156;2023-12-20T17:10:30;3.30;99.90
4739;DHT22;2383;48.632;10.156;2023-12-20T17:14:33;3.10;99.90
4739;DHT22;2383;48.632;10.156;2023-12-20T17:18:34;3.10;99.90
4739;DHT22;2383;48.632;10.156;2023-12-20T17:22:36;3.00;99.90
4739;DHT22;2383;48.632;10.156;2023-12-20T17:26:38;3.60;99.90
4739;DHT22;2383;48.632;10.156;2023-12-20T17:30:40;3.80;99.90
4739;DHT22;2383;48.632;10.156;2023-12-20T17:34:45;3.10;99.90
4739;DHT22;2383;48.632;10.156;2023-12-20T17:38:47;3.00;99.90
4739;DHT22;2383;48.632;10.156;2023-12-20T17:42:49;2.80;99.90
4739;DHT22;2383;48.632;10.156;2023-12-20T17:46:51;3.00;99.90
4739;DHT22;2383;48.632;10.156;2023-12-20T17:50:55;3.00;99.90
4739;DHT22;2383;48.632;10.156;2023-12-20T17:54:57;2.80;99.90
4739;DHT22;2383;48.632;10.156;2023-12-20T17:58:59;2.50;99.90
4739;DHT22;2383;48.632;10.156;2023-12-20T18:03:01;2.80;99.90
4739;DHT22;2383;48.632;10.156;2023-12-20T18:07:03;2.00;99.90
4739;DHT22;2383;48.632;10.156;2023-12-20T18:11:05;2.70;99.90
4739;DHT22;2383;48.632;10.156;2023-12-20T18:15:08;2.70;99.90
4739;DHT22;2383;48.632;10.156;2023-12-20T18:19:10;2.60;99.90
4739;DHT22;2383;48.632;10.156;2023-12-20T18:23:13;3.40;99.90
4739;DHT22;2383;48.632;10.156;2023-12-20T18:27:15;3.40;99.90
4739;DHT22;2383;48.632;10.156;2023-12-20T18:31:17;3.20;99.90
4739;DHT22;2383;48.632;10.156;2023-12-20T18:35:19;2.80;99.90
4739;DHT22;2383;48.632;10.156;2023-12-20T18:39:22;2.20;99.90
4739;DHT22;2383;48.632;10.156;2023-12-20T18:43:23;2.30;99.90
4739;DHT22;2383;48.632;10.156;2023-12-20T18:47:27;2.60;99.90
4739;DHT22;2383;48.632;10.156;2023-12-20T18:51:29;2.60;99.90
4739;DHT22;2383;48.632;10.156;2023-12-20T18:55:31;2.60;99.90
4739;DHT22;2383;48.632;10.156;2023-12-20T18:59:33;3.00;99.90
4739;DHT22;2383;48.632;10.156;2023-12-20T19:03:35;3.20;99.90
4739;DHT22;2383;48.632;10.156;2023-12-20T19:07:37;3.40;99.90
4739;DHT22;2383;48.632;10.156;2023-12-20T19:11:40;3.70;99.90
4739;DHT22;2383;48.632;10.156;2023-12-20T19:15:42;3.20;99.90
4739;DHT22;2383;48.632;10.156;2023-12-20T19:19:48;2.60;99.90
4739;DHT22;2383;48.632;10.156;2023-12-20T19:23:50;2.80;99.90
4739;DHT22;2383;48.632;10.156;2023-12-20T19:27:52;3.40;99.90
4739;DHT22;2383;48.632;10.156;2023-12-20T19:31:54;3.20;99.90
4739;DHT22;2383;48.632;10.156;2023-12-20T19:35:56;3.30;99.90
4739;DHT22;2383;48.632;10.156;2023-12-20T19:39:58;3.10;99.90
4739;DHT22;2383;48.632;10.156;2023-12-20T19:44:00;3.30;99.90
4739;DHT22;2383;48.632;10.156;2023-12-20T19:48:04;3.20;99.90
4739;DHT22;2383;48.632;10.156;2023-12-20T19:52:06;3.60;99.90
4739;DHT22;2383;48.632;10.156;2023-12-20T19:56:09;3.80;99.90
4739;DHT22;2383;48.632;10.156;2023-12-20T20:00:11;3.90;99.90
4739;DHT22;2383;48.632;10.156;2023-12-20T20:04:13;3.70;99.90
4739;DHT22;2383;48.632;10.156;2023-12-20T20:08:19;3.90;99.90
4739;DHT22;2383;48.632;10.156;2023-12-20T20:12:21;3.80;99.90
4739;DHT22;2383;48.632;10.156;2023-12-20T20:16:24;4.10;99.90
4739;DHT22;2383;48.632;10.156;2023-12-20T20:20:26;4.20;99.90
4739;DHT22;2383;48.632;10.156;2023-12-20T20:24:28;3.90;99.90
4739;DHT22;2383;48.632;10.156;2023-12-20T20:28:31;4.40;99.90
4739;DHT22;2383;48.632;10.156;2023-12-20T20:32:33;3.70;99.90
4739;DHT22;2383;48.632;10.156;2023-12-20T20:36:36;3.20;99.90
4739;DHT22;2383;48.632;10.156;2023-12-20T20:40:38;3.30;99.90
4739;DHT22;2383;48.632;10.156;2023-12-20T20:44:40;2.80;99.90
4739;DHT22;2383;48.632;10.156;2023-12-20T20:48:42;2.80;99.90
4739;DHT22;2383;48.632;10.156;2023-12-20T20:52:52;2.70;99.90
4739;DHT22;2383;48.632;10.156;2023-12-20T20:56:54;3.20;99.90
4739;DHT22;2383;48.632;10.156;2023-12-20T21:00:56;3.80;99.90
4739;DHT22;2383;48.632;10.156;2023-12-20T21:04:58;3.40;99.90
4739;DHT22;2383;48.632;10.156;2023-12-20T21:09:00;3.30;99.90
4739;DHT22;2383;48.632;10.156;2023-12-20T21:13:02;3.70;99.90
4739;DHT22;2383;48.632;10.156;2023-12-20T21:17:04;3.70;99.90
4739;DHT22;2383;48.632;10.156;2023-12-20T21:21:06;3.00;99.90
4739;DHT22;2383;48.632;10.156;2023-12-20T21:25:09;3.20;99.90
4739;DHT22;2383;48.632;10.156;2023-12-20T21:29:12;3.10;99.90
4739;DHT22;2383;48.632;10.156;2023-12-20T21:33:14;2.80;99.90
4739;DHT22;2383;48.632;10.156;2023-12-20T21:37:16;2.70;99.90
4739;DHT22;2383;48.632;10.156;2023-12-20T21:41:20;2.50;99.90
4739;DHT22;2383;48.632;10.156;2023-12-20T21:45:24;2.60;99.90
4739;DHT22;2383;48.632;10.156;2023-12-20T21:49:26;2.40;99.90
4739;DHT22;2383;48.632;10.156;2023-12-20T21:53:28;2.70;99.90
4739;DHT22;2383;48.632;10.156;2023-12-20T21:57:30;2.80;99.90
4739;DHT22;2383;48.632;10.156;2023-12-20T22:01:32;2.60;99.90
4739;DHT22;2383;48.632;10.156;2023-12-20T22:05:38;2.10;99.90
4739;DHT22;2383;48.632;10.156;2023-12-20T22:09:42;1.80;99.90
4739;DHT22;2383;48.632;10.156;2023-12-20T22:13:44;2.10;99.90
4739;DHT22;2383;48.632;10.156;2023-12-20T22:17:46;2.40;99.90
4739;DHT22;2383;48.632;10.156;2023-12-20T22:21:48;2.10;99.90
4739;DHT22;2383;48.632;10.156;2023-12-20T22:25:50;2.20;99.90
4739;DHT22;2383;48.632;10.156;2023-12-20T22:29:53;2.70;99.90
4739;DHT22;2383;48.632;10.156;2023-12-20T22:33:54;2.60;99.90
4739;DHT22;2383;48.632;10.156;2023-12-20T22:37:57;2.50;99.90
4739;DHT22;2383;48.632;10.156;2023-12-20T22:41:58;2.30;99.90
4739;DHT22;2383;48.632;10.156;2023-12-20T22:46:01;2.40;99.90
4739;DHT22;2383;48.632;10.156;2023-12-20T22:50:06;2.60;99.90
4739;DHT22;2383;48.632;10.156;2023-12-20T22:54:08;2.80;99.90
4739;DHT22;2383;48.632;10.156;2023-12-20T22:58:10;2.90;99.90
4739;DHT22;2383;48.632;10.156;2023-12-20T23:02:12;2.90;99.90
4739;DHT22;2383;48.632;10.156;2023-12-20T23:06:15;2.50;99.90
4739;DHT22;2383;48.632;10.156;2023-12-20T23:10:17;2.70;99.90
4739;DHT22;2383;48.632;10.156;2023-12-20T23:14:24;2.60;99.90
4739;DHT22;2383;48.632;10.156;2023-12-20T23:18:26;2.90;99.90
4739;DHT22;2383;48.632;10.156;2023-12-20T23:22:28;2.80;99.90
4739;DHT22;2383;48.632;10.156;2023-12-20T23:26:30;3.50;99.90
4739;DHT22;2383;48.632;10.156;2023-12-20T23:30:32;3.10;99.90
4739;DHT22;2383;48.632;10.156;2023-12-20T23:34:34;3.20;99.90
4739;DHT22;2383;48.632;10.156;2023-12-20T23:38:36;2.80;99.90
4739;DHT22;2383;48.632;10.156;2023-12-20T23:42:39;2.80;99.90
4739;DHT22;2383;48.632;10.156;2023-12-20T23:46:41;3.00;99.90
4739;DHT22;2383;48.632;10.156;2023-12-20T23:50:43;2.90;99.90
4739;DHT22;2383;48.632;10.156;2023-12-20T23:54:45;2.50;99.90
4739;DHT22;2383;48.632;10.156;2023-12-20T23:58:47;2.80;99.90
